TFL75X HEGN-HESH
Flight info
| Callsign | TFL75X |
|---|---|
| Flight time | 0h 16m |
| Altitude | 11000 |
| Route | GN311 DCT GN312 DCT EGNUB EGNUB1G |
| Aircraft | B738/M-SDE1FGHIJ1RWXYZ/LB1 |
Departure
| Time | 2026-04-27 12:49 |
|---|---|
| Airport | Hurghada International Airport (HEGN) |
Arrival
| Time | 2026-04-27 13:05 |
|---|---|
| Airport | Sharm El Sheikh International Airport (HESH) |
| Time | Latitude | Longitude | Altitude | Speed | Heading |
|---|---|---|---|---|---|
| 2026-04-27 12:13 | 27.17709 | 33.80671 | 57 ft | 0 kts | 75° |
| 2026-04-27 12:40 | 27.17705 | 33.80651 | 50 ft | 4 kts | 78° |
| 2026-04-27 12:41 | 27.17700 | 33.80621 | 49 ft | 4 kts | 85° |
| 2026-04-27 12:41 | 27.17700 | 33.80591 | 49 ft | 4 kts | 97° |
| 2026-04-27 12:41 | 27.17707 | 33.80564 | 51 ft | 4 kts | 132° |
| 2026-04-27 12:41 | 27.17717 | 33.80555 | 50 ft | 1 kts | 154° |
| 2026-04-27 12:42 | 27.17719 | 33.80554 | 50 ft | 0 kts | 154° |
| 2026-04-27 12:44 | 27.17717 | 33.80555 | 50 ft | 1 kts | 154° |
| 2026-04-27 12:44 | 27.17669 | 33.80578 | 53 ft | 14 kts | 163° |
| 2026-04-27 12:45 | 27.17540 | 33.80615 | 56 ft | 16 kts | 173° |
| 2026-04-27 12:45 | 27.17472 | 33.80527 | 52 ft | 16 kts | 257° |
| 2026-04-27 12:45 | 27.17428 | 33.80413 | 51 ft | 18 kts | 205° |
| 2026-04-27 12:45 | 27.17309 | 33.80434 | 50 ft | 17 kts | 165° |
| 2026-04-27 12:46 | 27.17196 | 33.80469 | 47 ft | 17 kts | 164° |
| 2026-04-27 12:46 | 27.17087 | 33.80503 | 50 ft | 16 kts | 165° |
| 2026-04-27 12:46 | 27.16983 | 33.80535 | 48 ft | 15 kts | 166° |
| 2026-04-27 12:46 | 27.16850 | 33.80569 | 48 ft | 27 kts | 167° |
| 2026-04-27 12:47 | 27.16646 | 33.80627 | 47 ft | 31 kts | 166° |
| 2026-04-27 12:47 | 27.16441 | 33.80690 | 45 ft | 24 kts | 164° |
| 2026-04-27 12:47 | 27.16318 | 33.80728 | 43 ft | 18 kts | 165° |
| 2026-04-27 12:47 | 27.16197 | 33.80763 | 40 ft | 18 kts | 168° |
| 2026-04-27 12:48 | 27.16133 | 33.80669 | 39 ft | 16 kts | 255° |
| 2026-04-27 12:48 | 27.16199 | 33.80588 | 41 ft | 16 kts | 345° |
| 2026-04-27 12:48 | 27.16507 | 33.80497 | 46 ft | 82 kts | 345° |
| 2026-04-27 12:48 | 27.17269 | 33.80290 | 89 ft | 137 kts | 349° |
| 2026-04-27 12:49 | 27.18242 | 33.80019 | 620 ft | 152 kts | 347° |
| 2026-04-27 12:49 | 27.19236 | 33.79696 | 1604 ft | 136 kts | 342° |
| 2026-04-27 12:49 | 27.20122 | 33.79409 | 2506 ft | 137 kts | 339° |
| 2026-04-27 12:49 | 27.21127 | 33.79072 | 2797 ft | 170 kts | 340° |
| 2026-04-27 12:50 | 27.22369 | 33.78658 | 3060 ft | 202 kts | 340° |
| 2026-04-27 12:50 | 27.23787 | 33.78188 | 3452 ft | 219 kts | 340° |
| 2026-04-27 12:50 | 27.25321 | 33.77680 | 3762 ft | 242 kts | 340° |
| 2026-04-27 12:50 | 27.26976 | 33.77133 | 4475 ft | 251 kts | 339° |
| 2026-04-27 12:51 | 27.28657 | 33.76576 | 5411 ft | 254 kts | 339° |
| 2026-04-27 12:51 | 27.30360 | 33.76011 | 6302 ft | 258 kts | 339° |
| 2026-04-27 12:51 | 27.32103 | 33.75461 | 7105 ft | 265 kts | 344° |
| 2026-04-27 12:51 | 27.33997 | 33.75572 | 7885 ft | 284 kts | 11° |
| 2026-04-27 12:52 | 27.35776 | 33.76667 | 8591 ft | 302 kts | 34° |
| 2026-04-27 12:52 | 27.37330 | 33.78305 | 8947 ft | 308 kts | 39° |
| 2026-04-27 12:52 | 27.38837 | 33.80043 | 8984 ft | 313 kts | 40° |
| 2026-04-27 12:52 | 27.40349 | 33.81801 | 8989 ft | 311 kts | 40° |
| 2026-04-27 12:53 | 27.43387 | 33.85251 | 9001 ft | 309 kts | 39° |
| 2026-04-27 12:53 | 27.44900 | 33.86944 | 8981 ft | 304 kts | 39° |
| 2026-04-27 12:53 | 27.46384 | 33.88603 | 8981 ft | 298 kts | 39° |
| 2026-04-27 12:54 | 27.47716 | 33.90388 | 8983 ft | 299 kts | 51° |
| 2026-04-27 12:54 | 27.48832 | 33.92375 | 9003 ft | 302 kts | 53° |
| 2026-04-27 12:54 | 27.49952 | 33.94390 | 8872 ft | 306 kts | 53° |
| 2026-04-27 12:54 | 27.51107 | 33.96446 | 8575 ft | 313 kts | 53° |
| 2026-04-27 12:55 | 27.52284 | 33.98503 | 8299 ft | 311 kts | 49° |
| 2026-04-27 12:55 | 27.53786 | 34.00159 | 8007 ft | 294 kts | 30° |
| 2026-04-27 12:55 | 27.55420 | 34.01464 | 7719 ft | 283 kts | 28° |
| 2026-04-27 12:55 | 27.57010 | 34.02700 | 7482 ft | 273 kts | 28° |
| 2026-04-27 12:56 | 27.58559 | 34.03902 | 7222 ft | 270 kts | 28° |
| 2026-04-27 12:56 | 27.60103 | 34.05105 | 6953 ft | 269 kts | 28° |
| 2026-04-27 12:56 | 27.61638 | 34.06308 | 6684 ft | 268 kts | 28° |
| 2026-04-27 12:56 | 27.63165 | 34.07510 | 6414 ft | 267 kts | 28° |
| 2026-04-27 12:57 | 27.64682 | 34.08710 | 6136 ft | 266 kts | 29° |
| 2026-04-27 12:57 | 27.66194 | 34.09910 | 5849 ft | 265 kts | 29° |
| 2026-04-27 12:57 | 27.67701 | 34.11107 | 5561 ft | 264 kts | 28° |
| 2026-04-27 12:57 | 27.69195 | 34.12296 | 5276 ft | 261 kts | 29° |
| 2026-04-27 12:58 | 27.70653 | 34.13458 | 5024 ft | 259 kts | 28° |
| 2026-04-27 12:58 | 27.72142 | 34.14644 | 4757 ft | 258 kts | 28° |
| 2026-04-27 12:58 | 27.73586 | 34.15796 | 4635 ft | 250 kts | 28° |
| 2026-04-27 12:58 | 27.74985 | 34.16913 | 4509 ft | 243 kts | 28° |
| 2026-04-27 12:59 | 27.76339 | 34.17995 | 4399 ft | 235 kts | 28° |
| 2026-04-27 12:59 | 27.77632 | 34.19027 | 4294 ft | 226 kts | 28° |
| 2026-04-27 12:59 | 27.78893 | 34.20034 | 4243 ft | 217 kts | 27° |
| 2026-04-27 12:59 | 27.80104 | 34.21005 | 4062 ft | 211 kts | 27° |
| 2026-04-27 13:00 | 27.81259 | 34.21996 | 3843 ft | 206 kts | 32° |
| 2026-04-27 13:00 | 27.82313 | 34.23023 | 3668 ft | 193 kts | 34° |
| 2026-04-27 13:00 | 27.83287 | 34.24034 | 3443 ft | 187 kts | 35° |
| 2026-04-27 13:00 | 27.84224 | 34.25014 | 3239 ft | 182 kts | 34° |
| 2026-04-27 13:01 | 27.85134 | 34.25970 | 3186 ft | 175 kts | 34° |
| 2026-04-27 13:01 | 27.86054 | 34.26931 | 2977 ft | 183 kts | 35° |
| 2026-04-27 13:01 | 27.86995 | 34.27918 | 2735 ft | 185 kts | 36° |
| 2026-04-27 13:01 | 27.87922 | 34.28895 | 2474 ft | 178 kts | 36° |
| 2026-04-27 13:02 | 27.88811 | 34.29829 | 2274 ft | 175 kts | 34° |
| 2026-04-27 13:02 | 27.89718 | 34.30773 | 2053 ft | 180 kts | 37° |
| 2026-04-27 13:02 | 27.90651 | 34.31762 | 1798 ft | 184 kts | 38° |
| 2026-04-27 13:02 | 27.91570 | 34.32724 | 1581 ft | 177 kts | 37° |
| 2026-04-27 13:03 | 27.92445 | 34.33639 | 1316 ft | 166 kts | 37° |
| 2026-04-27 13:03 | 27.93262 | 34.34497 | 1083 ft | 153 kts | 39° |
| 2026-04-27 13:03 | 27.94020 | 34.35292 | 932 ft | 149 kts | 40° |
| 2026-04-27 13:03 | 27.94768 | 34.36078 | 702 ft | 141 kts | 42° |
| 2026-04-27 13:04 | 27.95481 | 34.36826 | 508 ft | 139 kts | 42° |
| 2026-04-27 13:04 | 27.96194 | 34.37573 | 382 ft | 145 kts | 43° |
| 2026-04-27 13:04 | 27.96943 | 34.38346 | 209 ft | 145 kts | 44° |
| 2026-04-27 13:04 | 27.97636 | 34.39068 | 171 ft | 116 kts | 42° |
| 2026-04-27 13:05 | 27.98031 | 34.39479 | 174 ft | 57 kts | 43° |
| 2026-04-27 13:05 | 27.98151 | 34.39587 | 173 ft | 7 kts | 342° |
| 2026-04-27 13:05 | 27.98174 | 34.39537 | 173 ft | 7 kts | 303° |
| 2026-04-27 13:05 | 27.98206 | 34.39496 | 173 ft | 7 kts | 315° |
| 2026-04-27 13:06 | 27.98245 | 34.39444 | 171 ft | 11 kts | 290° |
| 2026-04-27 13:06 | 27.98208 | 34.39365 | 171 ft | 12 kts | 225° |
| 2026-04-27 13:06 | 27.98153 | 34.39296 | 171 ft | 11 kts | 258° |
| 2026-04-27 13:06 | 27.98181 | 34.39252 | 171 ft | 0 kts | 313° |
| 2026-04-27 13:07 | 27.98185 | 34.39248 | 171 ft | 1 kts | 313° |
| 2026-04-27 13:07 | 27.98189 | 34.39242 | 171 ft | 0 kts | 313° |